Time;durP1;ratioP1;P1;durP2;ratioP2;P2;SDS_P1;SDS_P2;PMS_P1;PMS_P2;Temp;Humidity;BMP_temperature;BMP_pressure;BME280_temperature;BME280_humidity;BME280_pressure;Samples;Min_cycle;Max_cycle;Signal;HPM_P1;HPM_P2
2022/05/25 00:00:36;;;;;;;4.28;2.92;;;;;;;16.67;55.74;100918.72;5097442;28;20035;-43
2022/05/25 00:03:03;;;;;;;3.80;2.95;;;;;;;16.66;55.84;100917.91;5092722;28;20479;-42
2022/05/25 00:05:30;;;;;;;2.90;2.60;;;;;;;16.66;56.09;100915.25;5095077;28;20106;-46
2022/05/25 00:07:57;;;;;;;4.13;2.80;;;;;;;16.64;55.81;100917.19;5083787;28;20548;-43
2022/05/25 00:10:24;;;;;;;3.50;2.95;;;;;;;16.63;55.85;100923.47;5079243;28;20039;-47
2022/05/25 00:12:50;;;;;;;3.40;3.10;;;;;;;16.63;55.94;100930.59;5080385;28;20039;-47
2022/05/25 00:15:16;;;;;;;3.78;3.15;;;;;;;16.61;55.92;100928.91;5084557;28;20036;-49
2022/05/25 00:17:42;;;;;;;3.22;2.92;;;;;;;16.61;55.99;100931.56;5089997;28;20052;-50
2022/05/25 00:20:10;;;;;;;3.13;2.83;;;;;;;16.59;55.94;100944.13;5085229;28;20066;-51
2022/05/25 00:22:45;;;;;;;2.88;2.58;;;;;;;16.56;55.86;100947.00;5089393;28;20040;-46
2022/05/25 00:25:17;;;;;;;2.92;2.50;;;;;;;16.52;55.87;100958.00;5081972;28;20090;-48
2022/05/25 00:27:43;;;;;;;4.13;2.30;;;;;;;16.48;55.82;100959.22;5083486;28;20032;-48
2022/05/25 00:30:09;;;;;;;2.38;2.17;;;;;;;16.42;55.92;100953.41;5085333;28;20020;-48
2022/05/25 00:32:35;;;;;;;2.63;2.40;;;;;;;16.39;55.74;100960.78;5092105;28;20020;-49
2022/05/25 00:35:01;;;;;;;4.30;2.85;;;;;;;16.36;56.14;100961.03;5092360;28;20039;-47
2022/05/25 00:37:26;;;;;;;4.10;3.03;;;;;;;16.34;55.71;100961.16;5093182;28;20024;-47
2022/05/25 00:39:52;;;;;;;3.63;2.70;;;;;;;16.32;55.76;100963.09;5084550;28;20101;-45
2022/05/25 00:42:17;;;;;;;3.92;2.58;;;;;;;16.28;55.76;100965.13;5085598;28;20047;-49
2022/05/25 00:44:43;;;;;;;2.92;2.65;;;;;;;16.26;55.76;100958.28;5094736;28;20036;-46
2022/05/25 00:47:12;;;;;;;2.95;2.63;;;;;;;16.24;55.79;100960.19;5079796;28;20024;-44
2022/05/25 00:49:38;;;;;;;4.13;2.63;;;;;;;16.20;56.04;100956.09;5081565;28;20028;-47
2022/05/25 00:52:10;;;;;;;3.22;2.45;;;;;;;16.18;55.99;100953.56;5084293;28;20073;-44
2022/05/25 00:54:59;;;;;;;5.70;2.80;;;;;;;16.12;56.19;100948.72;5081289;28;20050;-47
2022/05/25 00:57:36;;;;;;;4.57;2.90;;;;;;;16.07;56.39;100940.25;5081572;28;20102;-45
2022/05/25 01:00:10;;;;;;;3.92;2.60;;;;;;;16.06;56.29;100942.09;5084477;28;20027;-44
2022/05/25 01:02:42;;;;;;;4.38;2.80;;;;;;;16.03;56.34;100947.63;5088750;28;20497;-47
2022/05/25 01:05:09;;;;;;;3.90;2.47;;;;;;;16.00;56.54;100953.16;5085782;28;20028;-47
2022/05/25 01:07:43;;;;;;;4.53;2.70;;;;;;;16.02;56.54;100956.53;5091053;28;20055;-48
2022/05/25 01:10:39;;;;;;;2.83;2.33;;;;;;;16.03;56.60;100960.91;5087940;28;20031;-45
2022/05/25 01:13:28;;;;;;;2.97;2.67;;;;;;;16.03;56.41;100974.16;5079928;28;20069;-47
2022/05/25 01:16:35;;;;;;;3.72;3.00;;;;;;;16.02;56.40;100969.81;5087957;28;20081;-48
2022/05/25 01:19:27;;;;;;;3.65;2.85;;;;;;;16.01;56.45;100981.41;5087579;28;20062;-45
2022/05/25 01:22:20;;;;;;;4.15;3.03;;;;;;;15.95;56.35;100976.56;5083990;28;20081;-45
2022/05/25 01:24:48;;;;;;;3.15;2.83;;;;;;;15.91;56.39;100980.41;5082068;28;20164;-45
2022/05/25 01:27:41;;;;;;;3.20;2.72;;;;;;;15.87;56.44;100986.91;5090635;28;20029;-46
2022/05/25 01:30:33;;;;;;;3.40;2.83;;;;;;;15.81;56.29;100981.06;5089087;28;20070;-44
2022/05/25 01:33:05;;;;;;;3.22;2.90;;;;;;;15.80;56.25;100968.81;5091244;28;20102;-46
2022/05/25 01:35:35;;;;;;;4.03;3.00;;;;;;;15.79;56.25;100967.09;5085113;28;20032;-47
2022/05/25 01:38:04;;;;;;;3.85;2.80;;;;;;;15.78;56.25;100973.38;5087356;28;20543;-44
2022/05/25 01:40:50;;;;;;;6.20;2.97;;;;;;;15.77;56.18;100969.03;5088632;28;20380;-48
2022/05/25 01:43:38;;;;;;;3.80;3.13;;;;;;;15.74;56.10;100971.91;5087415;28;20085;-51
2022/05/25 01:46:20;;;;;;;5.10;3.50;;;;;;;15.65;56.12;100967.31;5085063;28;20024;-47
2022/05/25 01:48:48;;;;;;;3.97;3.25;;;;;;;15.59;56.21;100967.75;5085954;28;20034;-48
2022/05/25 01:51:19;;;;;;;3.53;3.13;;;;;;;15.55;56.24;100970.63;5085222;28;20107;-48
2022/05/25 01:53:50;;;;;;;3.65;3.08;;;;;;;15.52;56.61;100970.88;5075475;28;20036;-45
2022/05/25 01:56:20;;;;;;;3.17;2.78;;;;;;;15.51;56.41;100974.47;5084028;28;20047;-47
2022/05/25 01:58:47;;;;;;;;;;;;;;;15.47;56.44;100972.19;5093602;28;20023;-48
2022/05/25 02:01:13;;;;;;;4.47;3.08;;;;;;;15.47;56.33;100980.13;5082732;28;19932;-47
2022/05/25 02:06:43;;;;;;;4.93;3.00;;;;;;;15.47;56.67;100975.69;5084576;28;20046;-45
2022/05/25 02:09:28;;;;;;;3.75;3.30;;;;;;;15.49;56.63;100980.88;5080177;28;20039;-46
2022/05/25 02:12:26;;;;;;;3.95;2.60;;;;;;;15.48;56.57;100979.16;5082370;28;20071;-47
2022/05/25 02:15:10;;;;;;;5.30;4.20;;;;;;;15.47;56.77;100978.34;5067658;28;20040;-46
2022/05/25 02:17:38;;;;;;;4.15;2.83;;;;;;;15.46;56.81;100981.94;5092588;28;20479;-46
2022/05/25 02:20:11;;;;;;;3.35;3.00;;;;;;;15.47;56.74;100988.94;5087707;28;20051;-42
2022/05/25 02:22:48;;;;;;;3.20;2.90;;;;;;;15.48;56.95;100995.94;5086921;28;20188;-47
2022/05/25 02:25:28;;;;;;;3.03;2.72;;;;;;;15.48;56.95;100998.59;5088304;28;20121;-46
2022/05/25 02:28:00;;;;;;;3.60;3.30;;;;;;;15.48;57.04;101000.38;5087450;28;20028;-46
2022/05/25 02:30:31;;;;;;;4.05;3.15;;;;;;;15.48;57.05;100998.59;5085945;28;20043;-44
2022/05/25 02:33:13;;;;;;;4.22;2.72;;;;;;;15.47;56.91;100996.91;5091028;28;20039;-45
2022/05/25 02:35:41;;;;;;;2.70;2.50;;;;;;;15.46;56.78;101002.31;5094060;28;20105;-47
2022/05/25 02:38:08;;;;;;;2.88;2.30;;;;;;;15.44;56.97;101001.56;5093433;28;20114;-47
2022/05/25 02:40:35;;;;;;;2.80;2.40;;;;;;;15.44;56.71;101009.53;5083837;28;20421;-47
2022/05/25 02:43:02;;;;;;;2.30;2.10;;;;;;;15.44;56.80;101004.22;5092442;28;20054;-46
2022/05/25 02:45:28;;;;;;;10.15;3.88;;;;;;;15.41;56.64;101000.00;5089733;28;20399;-44
2022/05/25 02:47:54;;;;;;;4.30;2.40;;;;;;;15.40;56.63;101006.25;5090538;28;20020;-44
2022/05/25 02:50:19;;;;;;;2.88;2.40;;;;;;;15.35;56.65;101011.91;5086400;28;20059;-46
2022/05/25 02:52:45;;;;;;;3.33;2.60;;;;;;;15.29;56.83;100998.25;5085883;28;20074;-45
2022/05/25 02:55:10;;;;;;;3.05;2.70;;;;;;;15.22;57.03;100998.69;5083133;28;20028;-47
2022/05/25 02:57:36;;;;;;;6.43;3.03;;;;;;;15.18;57.13;101004.34;5089840;28;20024;-49
2022/05/25 03:00:04;;;;;;;3.30;2.65;;;;;;;15.17;57.29;101003.50;5087340;28;20510;-48
2022/05/25 03:02:29;;;;;;;4.15;2.53;;;;;;;15.15;57.26;101000.13;5085683;28;20460;-48
2022/05/25 03:04:55;;;;;;;3.13;2.33;;;;;;;15.17;57.34;101005.31;5088161;28;20114;-47
2022/05/25 03:07:20;;;;;;;2.28;2.08;;;;;;;15.18;57.07;101009.66;5085713;28;20039;-48
2022/05/25 03:09:45;;;;;;;3.00;2.45;;;;;;;15.18;57.05;101015.81;5089995;28;20434;-44
2022/05/25 03:12:13;;;;;;;3.20;2.90;;;;;;;15.18;57.03;101018.47;5087717;28;20056;-45
2022/05/25 03:14:39;;;;;;;3.42;2.25;;;;;;;15.18;57.18;101029.06;5090705;28;20024;-46
2022/05/25 03:17:12;;;;;;;6.20;2.70;;;;;;;15.16;57.13;101025.66;5090562;28;20032;-45
2022/05/25 03:19:38;;;;;;;3.28;2.60;;;;;;;15.15;57.37;101033.72;5089267;28;20027;-46
2022/05/25 03:22:04;;;;;;;3.65;2.58;;;;;;;15.16;57.15;101038.94;5086982;28;20036;-45
2022/05/25 03:24:29;;;;;;;3.45;2.95;;;;;;;15.16;57.26;101048.66;5086405;28;20118;-47
2022/05/25 03:26:54;;;;;;;3.58;2.97;;;;;;;15.15;57.27;101050.47;5084003;28;20016;-50
2022/05/25 03:29:20;;;;;;;2.50;2.30;;;;;;;15.16;56.98;101038.06;5085754;28;20032;-45
2022/05/25 03:31:46;;;;;;;2.90;2.40;;;;;;;15.17;56.88;101045.06;5086849;28;20039;-48
2022/05/25 03:34:12;;;;;;;2.85;2.38;;;;;;;15.17;56.93;101045.91;5090467;28;20614;-47
2022/05/25 03:36:38;;;;;;;2.17;1.98;;;;;;;15.18;56.88;101052.91;5088112;28;20084;-47
2022/05/25 03:39:03;;;;;;;5.53;2.50;;;;;;;15.18;57.01;101058.22;5085942;28;20040;-47
2022/05/25 03:41:29;;;;;;;3.88;2.80;;;;;;;15.18;56.77;101060.88;5088092;28;20110;-47
2022/05/25 03:43:54;;;;;;;3.47;3.08;;;;;;;15.18;56.78;101060.00;5089768;28;20404;-45
2022/05/25 03:46:20;;;;;;;4.20;3.35;;;;;;;15.16;56.89;101049.53;5091280;28;20042;-47
2022/05/25 03:48:45;;;;;;;4.82;3.80;;;;;;;15.16;56.94;101060.13;5088953;28;20026;-44
2022/05/25 03:51:11;;;;;;;4.65;3.42;;;;;;;15.17;56.94;101067.13;5088859;28;20396;-46
2022/05/25 03:53:36;;;;;;;6.43;4.25;;;;;;;15.20;57.01;101074.84;5083553;28;20037;-49
2022/05/25 03:56:02;;;;;;;6.45;4.13;;;;;;;15.24;57.09;101078.97;5086883;28;20042;-47
2022/05/25 03:58:27;;;;;;;8.85;4.32;;;;;;;15.28;57.07;101078.75;5079981;28;20112;-44
2022/05/25 04:00:53;;;;;;;5.80;4.60;;;;;;;15.31;57.06;101079.38;5077329;28;20095;-51
2022/05/25 04:03:18;;;;;;;6.32;4.80;;;;;;;15.34;57.11;101084.44;5085902;28;20100;-51
2022/05/25 04:05:44;;;;;;;8.75;4.10;;;;;;;15.35;57.27;101090.63;5082076;28;20036;-48
2022/05/25 04:08:10;;;;;;;4.40;3.53;;;;;;;15.36;57.45;101086.97;5085121;28;20064;-45
2022/05/25 04:10:36;;;;;;;4.50;4.10;;;;;;;15.35;57.56;101090.63;5080391;28;20046;-46
2022/05/25 04:13:02;;;;;;;4.28;3.75;;;;;;;15.34;57.85;101086.28;5088645;28;20024;-46
2022/05/25 04:15:31;;;;;;;4.05;3.65;;;;;;;15.37;57.94;101086.03;5086726;28;20032;-45
2022/05/25 04:17:56;;;;;;;4.45;3.95;;;;;;;15.38;58.08;101085.94;5086044;28;20341;-47
2022/05/25 04:20:24;;;;;;;6.18;3.60;;;;;;;15.42;58.18;101083.06;5082992;28;24518;-44
2022/05/25 04:22:50;;;;;;;4.28;3.88;;;;;;;15.42;58.27;101086.53;5081231;28;20404;-44
2022/05/25 04:25:18;;;;;;;5.38;3.90;;;;;;;15.45;58.27;101086.31;5089280;28;20062;-45
2022/05/25 04:27:46;;;;;;;8.65;4.47;;;;;;;15.50;58.54;101094.78;5079288;28;20111;-45
2022/05/25 04:30:15;;;;;;;15.07;6.38;;;;;;;15.59;58.62;101084.47;5072078;28;20089;-47
2022/05/25 04:32:41;;;;;;;12.65;8.90;;;;;;;15.65;58.46;101091.97;5078387;28;20046;-46
2022/05/25 04:35:07;;;;;;;11.93;7.70;;;;;;;15.70;58.32;101088.03;5083187;28;20404;-48
2022/05/25 04:40:23;;;;;;;5.10;3.63;;;;;;;15.80;58.25;101093.50;5081802;28;20566;-47
2022/05/25 04:42:50;;;;;;;4.82;3.80;;;;;;;15.84;58.34;101086.97;5089860;28;20023;-44
2022/05/25 04:45:16;;;;;;;4.45;3.83;;;;;;;15.88;58.45;101081.47;5085048;28;20043;-46
2022/05/25 04:47:42;;;;;;;6.03;3.45;;;;;;;15.93;58.41;101074.88;5079736;28;20063;-46
2022/05/25 04:50:09;;;;;;;3.88;3.25;;;;;;;15.97;58.45;101076.34;5080948;28;20369;-49
2022/05/25 04:52:36;;;;;;;4.60;3.60;;;;;;;16.01;58.45;101087.56;5080736;28;20065;-45
2022/05/25 04:55:03;;;;;;;4.43;4.00;;;;;;;16.04;58.44;101084.69;5078682;28;20028;-50
2022/05/25 04:57:28;;;;;;;5.10;4.00;;;;;;;16.07;58.46;101083.59;5083867;28;20036;-50
2022/05/25 04:59:59;;;;;;;4.30;3.85;;;;;;;16.10;58.53;101088.66;5082591;28;20138;-50
2022/05/25 05:02:25;;;;;;;5.25;4.47;;;;;;;16.14;58.32;101100.75;5073563;28;20384;-49
2022/05/25 05:04:51;;;;;;;5.25;4.07;;;;;;;16.14;58.37;101101.59;5080926;28;20502;-47
2022/05/25 05:07:17;;;;;;;5.38;4.70;;;;;;;16.16;58.61;101098.84;5082989;28;20028;-45
2022/05/25 05:09:45;;;;;;;15.15;10.45;;;;;;;16.21;58.66;101095.81;5089062;28;20036;-47
2022/05/25 05:12:12;;;;;;;4.63;3.95;;;;;;;16.25;58.51;101099.94;5084000;28;20391;-46
2022/05/25 05:14:37;;;;;;;5.25;4.75;;;;;;;16.28;58.33;101094.38;5085816;28;20032;-48
2022/05/25 05:17:06;;;;;;;9.57;6.93;;;;;;;16.29;58.41;101101.38;5090338;28;20028;-47
2022/05/25 05:19:32;;;;;;;5.25;4.15;;;;;;;16.28;58.30;101100.56;5087805;28;20028;-47
2022/05/25 05:21:58;;;;;;;5.85;4.70;;;;;;;16.25;58.45;101097.28;5088943;28;20483;-47
2022/05/25 05:24:27;;;;;;;6.47;4.32;;;;;;;16.22;58.58;101093.03;5092138;28;20035;-48
2022/05/25 05:26:54;;;;;;;13.00;6.05;;;;;;;16.24;58.74;101093.78;5089373;28;20081;-46
2022/05/25 05:29:20;;;;;;;5.93;4.88;;;;;;;16.28;58.84;101092.59;5094978;28;20340;-47
2022/05/25 05:31:46;;;;;;;6.65;4.63;;;;;;;16.29;58.59;101104.91;5088337;28;20494;-45
2022/05/25 05:34:11;;;;;;;7.88;5.82;;;;;;;16.30;58.58;101097.78;5089445;28;20115;-48
2022/05/25 05:36:43;;;;;;;10.50;4.57;;;;;;;16.34;58.56;101093.94;5089540;28;20097;-46
2022/05/25 05:39:12;;;;;;;6.65;4.60;;;;;;;16.37;58.64;101101.66;5085265;28;20019;-46
2022/05/25 05:41:44;;;;;;;6.80;6.13;;;;;;;16.43;58.54;101103.81;5087471;28;20480;-45
2022/05/25 05:44:13;;;;;;;9.52;5.60;;;;;;;16.49;58.30;101113.13;5086833;28;20031;-47
2022/05/25 05:46:41;;;;;;;7.68;6.05;;;;;;;16.52;58.33;101112.06;5090058;28;20016;-47
2022/05/25 05:49:08;;;;;;;8.10;5.30;;;;;;;16.56;58.43;101117.03;5095508;28;20040;-45
2022/05/25 05:51:35;;;;;;;6.28;5.45;;;;;;;16.61;58.54;101116.66;5088619;28;20069;-45
2022/05/25 05:54:02;;;;;;;5.32;4.70;;;;;;;16.65;58.64;101118.13;5084323;28;20380;-47
2022/05/25 05:56:28;;;;;;;6.15;4.82;;;;;;;16.68;58.77;101122.34;5089754;28;20024;-44
2022/05/25 05:58:53;;;;;;;7.53;5.10;;;;;;;16.71;58.77;101116.78;5086897;28;20026;-46
2022/05/25 06:01:19;;;;;;;7.05;5.90;;;;;;;16.72;58.90;101119.31;5089664;28;20589;-48
2022/05/25 06:03:44;;;;;;;6.47;5.07;;;;;;;16.73;59.02;101118.34;5097169;28;20097;-49
2022/05/25 06:06:10;;;;;;;5.28;4.50;;;;;;;16.74;59.00;101122.72;5087558;28;20024;-46
2022/05/25 06:08:36;;;;;;;5.93;4.72;;;;;;;16.75;58.96;101128.88;5088562;28;20040;-47
2022/05/25 06:11:01;;;;;;;7.47;4.80;;;;;;;16.76;58.87;101131.41;5089019;28;20097;-49
2022/05/25 06:13:26;;;;;;;6.07;5.25;;;;;;;16.76;58.80;101135.88;5094437;28;20155;-47
2022/05/25 06:21:23;;;;;;;11.27;6.07;;;;;;;16.77;59.09;101138.41;5090031;28;20174;-48
2022/05/25 06:23:49;;;;;;;9.57;5.93;;;;;;;16.81;59.03;101143.50;5085941;28;20036;-48
2022/05/25 06:26:15;;;;;;;14.93;8.52;;;;;;;16.84;58.91;101135.28;5096607;28;20016;-47
2022/05/25 06:28:42;;;;;;;8.75;5.93;;;;;;;16.85;59.13;101137.81;5091187;28;20032;-48
2022/05/25 06:31:07;;;;;;;6.53;5.10;;;;;;;16.88;59.07;101140.25;5085750;28;20033;-49
2022/05/25 06:33:33;;;;;;;4.90;4.40;;;;;;;16.89;59.26;101143.72;5092599;28;20093;-45
2022/05/25 06:36:22;;;;;;;6.75;4.63;;;;;;;16.91;59.36;101144.47;5091465;28;20024;-45
2022/05/25 06:38:49;;;;;;;4.53;4.13;;;;;;;16.94;59.38;101141.56;5087386;28;20165;-47
2022/05/25 06:41:14;;;;;;;5.63;4.63;;;;;;;16.98;59.47;101155.50;5095158;28;20043;-47
2022/05/25 06:43:41;;;;;;;7.80;4.65;;;;;;;17.01;59.54;101153.47;5087129;28;20028;-46
2022/05/25 06:46:09;;;;;;;7.75;4.72;;;;;;;17.02;59.68;101152.47;5093708;28;20026;-45
2022/05/25 06:48:35;;;;;;;7.15;4.88;;;;;;;17.05;59.66;101152.22;5085893;28;20028;-48
2022/05/25 06:51:18;;;;;;;5.20;4.65;;;;;;;17.09;59.58;101160.84;5085380;28;20115;-44
2022/05/25 06:53:44;;;;;;;6.72;5.93;;;;;;;17.13;59.30;101169.41;5082732;28;20092;-44
2022/05/25 06:56:09;;;;;;;5.97;5.38;;;;;;;17.16;59.06;101156.69;5094979;28;20072;-46
2022/05/25 06:58:35;;;;;;;8.32;5.60;;;;;;;17.22;58.78;101158.03;5089644;28;20020;-47
2022/05/25 07:01:02;;;;;;;5.75;5.20;;;;;;;17.27;58.69;101161.19;5086835;28;20124;-47
2022/05/25 07:03:28;;;;;;;6.82;4.85;;;;;;;17.32;58.41;101164.28;5098205;28;20037;-46
2022/05/25 07:05:53;;;;;;;5.50;4.65;;;;;;;17.37;57.98;101156.81;5091471;28;20040;-48
2022/05/25 07:08:19;;;;;;;6.18;4.68;;;;;;;17.39;57.75;101164.69;5093621;28;20078;-47
2022/05/25 07:10:46;;;;;;;8.70;5.35;;;;;;;17.43;57.46;101159.94;5099196;28;20488;-48
2022/05/25 07:13:16;;;;;;;6.43;4.85;;;;;;;17.45;57.20;101166.81;5096690;28;20032;-47
2022/05/25 07:15:42;;;;;;;5.70;4.75;;;;;;;17.46;56.91;101170.34;5093389;28;20483;-45
2022/05/25 07:18:08;;;;;;;5.20;4.70;;;;;;;17.47;57.12;101172.03;5088497;28;20023;-46
2022/05/25 07:20:34;;;;;;;5.35;4.78;;;;;;;17.50;56.80;101175.28;5086220;28;20055;-47
2022/05/25 07:23:00;;;;;;;6.63;4.78;;;;;;;17.56;56.58;101176.63;5090381;28;20036;-46
2022/05/25 07:25:25;;;;;;;8.50;4.80;;;;;;;17.62;56.67;101172.59;5088892;28;20035;-45
2022/05/25 07:27:51;;;;;;;7.70;4.95;;;;;;;17.68;56.46;101172.94;5094088;28;20027;-49
2022/05/25 07:30:18;;;;;;;6.35;5.70;;;;;;;17.76;56.65;101171.50;5092901;28;20058;-45
2022/05/25 07:32:45;;;;;;;10.93;8.20;;;;;;;17.84;56.56;101166.38;5094788;28;20028;-48
2022/05/25 07:35:14;;;;;;;7.97;5.40;;;;;;;17.94;56.47;101167.31;5088772;28;20487;-46
2022/05/25 07:37:42;;;;;;;7.80;5.03;;;;;;;18.04;56.23;101171.91;5088819;28;20036;-47
2022/05/25 07:40:15;;;;;;;5.13;4.55;;;;;;;18.12;56.10;101177.44;5097714;28;20035;-46
2022/05/25 07:42:44;;;;;;;6.55;4.95;;;;;;;18.19;55.82;101172.44;5094333;28;20035;-50
2022/05/25 07:45:10;;;;;;;5.50;4.57;;;;;;;18.26;55.76;101166.47;5096004;28;20030;-45
2022/05/25 07:47:36;;;;;;;7.28;5.22;;;;;;;18.35;55.55;101172.03;5095480;28;20012;-45
2022/05/25 07:50:04;;;;;;;5.45;4.53;;;;;;;18.43;54.92;101174.88;5090535;28;20020;-50
2022/05/25 07:52:34;;;;;;;7.90;4.82;;;;;;;18.47;54.40;101181.63;5084350;28;20028;-48
2022/05/25 07:54:59;;;;;;;;;;;;;;;18.48;54.32;101178.00;5089410;28;20059;-48
2022/05/25 07:57:25;;;;;;;5.57;4.32;;;;;;;18.51;54.02;101183.06;5098637;28;20338;-47
2022/05/25 07:59:50;;;;;;;4.78;4.32;;;;;;;18.57;53.89;101179.03;5095090;28;20032;-44
2022/05/25 08:07:56;;;;;;;3.50;3.20;;;;;;;18.69;51.66;101185.13;5090515;28;20380;-49
2022/05/25 08:10:25;;;;;;;4.65;3.10;;;;;;;18.72;51.29;101183.06;5087657;28;20480;-43
2022/05/25 08:12:57;;;;;;;3.28;2.25;;;;;;;18.75;49.74;101189.94;5090671;28;20028;-46
2022/05/25 08:15:24;;;;;;;2.25;1.88;;;;;;;18.75;49.38;101181.94;5094448;28;20028;-47
2022/05/25 08:17:50;;;;;;;3.38;2.00;;;;;;;18.80;48.90;101186.88;5089992;28;20028;-43
2022/05/25 08:20:16;;;;;;;2.78;1.67;;;;;;;18.83;48.53;101183.97;5096695;28;20395;-44
2022/05/25 08:22:42;;;;;;;2.55;1.77;;;;;;;18.90;48.12;101182.47;5087524;28;20534;-44
2022/05/25 08:25:09;;;;;;;4.47;1.90;;;;;;;18.95;47.62;101182.94;5092248;28;20032;-44
2022/05/25 08:27:39;;;;;;;3.88;1.90;;;;;;;19.02;47.21;101181.44;5093809;28;20077;-47
2022/05/25 08:30:06;;;;;;;3.20;1.58;;;;;;;19.10;46.70;101187.91;5096105;28;20067;-48
2022/05/25 08:32:32;;;;;;;2.17;1.60;;;;;;;19.09;46.54;101189.75;5091447;28;20024;-47
2022/05/25 08:34:57;;;;;;;1.95;1.70;;;;;;;19.10;46.41;101199.44;5091474;28;20092;-47
2022/05/25 08:37:23;;;;;;;2.42;1.60;;;;;;;19.13;46.23;101196.50;5090642;28;20059;-47
2022/05/25 08:39:48;;;;;;;3.90;1.80;;;;;;;19.12;45.77;101192.16;5090371;28;20035;-47
2022/05/25 08:42:19;;;;;;;3.85;1.73;;;;;;;19.12;45.93;101194.81;5097630;28;20028;-47
2022/05/25 08:44:48;;;;;;;3.92;1.77;;;;;;;19.16;45.89;101190.03;5086562;28;20606;-49
2022/05/25 08:47:13;;;;;;;5.20;1.70;;;;;;;19.22;45.68;101199.34;5089370;28;20035;-46
2022/05/25 08:49:42;;;;;;;4.05;1.63;;;;;;;19.25;45.81;101196.41;5090373;28;20028;-47
2022/05/25 08:52:22;;;;;;;2.83;1.92;;;;;;;19.31;45.65;101195.84;5097033;28;20034;-47
2022/05/25 08:54:47;;;;;;;;;;;;;;;19.30;46.03;101191.50;5088349;28;20020;-45
2022/05/25 08:57:27;;;;;;;3.78;2.20;;;;;;;19.30;45.68;101195.03;5082471;28;19920;-48
2022/05/25 09:00:00;;;;;;;4.40;2.20;;;;;;;19.28;45.41;101201.47;5086785;28;20019;-47
2022/05/25 09:02:33;;;;;;;6.85;3.03;;;;;;;19.24;45.05;101200.06;5085118;28;20633;-47
2022/05/25 09:05:16;;;;;;;2.85;1.90;;;;;;;19.19;45.38;101206.63;5095060;28;20022;-45
2022/05/25 09:07:49;;;;;;;1.70;1.60;;;;;;;19.17;45.41;101208.56;5090394;28;20039;-48
2022/05/25 09:10:15;;;;;;;2.88;1.80;;;;;;;19.13;45.17;101215.19;5088215;28;20031;-49
2022/05/25 09:12:52;;;;;;;3.88;2.10;;;;;;;19.11;44.93;101216.25;5087389;28;20379;-48
2022/05/25 09:15:23;;;;;;;2.42;1.60;;;;;;;19.04;45.05;101207.94;5090922;28;20020;-48
2022/05/25 09:17:58;;;;;;;2.45;1.30;;;;;;;18.98;44.92;101217.34;5086676;28;20016;-49
2022/05/25 09:20:31;;;;;;;2.50;2.00;;;;;;;18.95;44.92;101214.09;5088263;28;20063;-46
2022/05/25 09:22:58;;;;;;;3.35;1.90;;;;;;;18.87;44.95;101220.88;5090952;28;20131;-46
2022/05/25 09:25:24;;;;;;;2.90;2.13;;;;;;;18.81;44.75;101218.75;5089799;28;20084;-47
2022/05/25 09:28:03;;;;;;;2.47;1.98;;;;;;;18.73;45.30;101216.75;5086021;28;20033;-48
2022/05/25 09:30:32;;;;;;;3.53;2.10;;;;;;;18.65;45.01;101221.03;5091375;28;20028;-49
2022/05/25 09:33:07;;;;;;;3.63;1.98;;;;;;;18.62;45.31;101226.63;5092986;28;20022;-48
2022/05/25 09:35:38;;;;;;;6.10;1.77;;;;;;;18.64;45.60;101222.00;5088170;28;20381;-49
2022/05/25 09:38:30;;;;;;;2.22;2.03;;;;;;;18.72;45.57;101214.19;5086654;28;20534;-44
2022/05/25 09:40:56;;;;;;;3.60;2.33;;;;;;;18.80;45.70;101211.75;5083121;28;20044;-47
2022/05/25 09:43:24;;;;;;;4.50;2.00;;;;;;;18.87;45.53;101220.88;5095442;28;20520;-50
2022/05/25 09:45:53;;;;;;;3.40;2.00;;;;;;;18.91;45.49;101220.63;5090196;28;20618;-50
2022/05/25 09:48:26;;;;;;;2.75;2.45;;;;;;;18.91;45.69;101209.97;5088147;28;20547;-48
2022/05/25 09:51:05;;;;;;;4.28;1.90;;;;;;;18.98;45.66;101216.50;5082256;28;20024;-46
2022/05/25 09:53:39;;;;;;;4.40;1.80;;;;;;;19.09;45.76;101210.22;5087378;28;20024;-48
2022/05/25 09:56:28;;;;;;;4.93;1.95;;;;;;;19.20;45.76;101212.81;5095203;28;20066;-51
2022/05/25 09:58:58;;;;;;;2.65;1.95;;;;;;;19.27;45.53;101205.13;5087429;28;20106;-50
2022/05/25 10:01:35;;;;;;;3.08;1.75;;;;;;;19.25;44.87;101209.75;5095201;28;20047;-48
2022/05/25 10:04:01;;;;;;;1.90;1.42;;;;;;;19.21;44.64;101209.13;5085446;28;20039;-48
2022/05/25 10:06:29;;;;;;;2.30;1.38;;;;;;;19.22;44.37;101207.34;5089795;28;20024;-46
2022/05/25 10:09:21;;;;;;;1.88;1.30;;;;;;;19.23;44.31;101209.03;5085019;28;20031;-49
2022/05/25 10:11:56;;;;;;;3.30;1.98;;;;;;;19.24;43.92;101200.88;5091771;28;20022;-46
2022/05/25 10:14:29;;;;;;;4.38;1.58;;;;;;;19.25;43.63;101204.41;5084988;28;20051;-50
2022/05/25 10:17:06;;;;;;;2.58;1.48;;;;;;;19.24;43.86;101210.72;5089986;28;20061;-51
2022/05/25 10:19:36;;;;;;;2.70;1.63;;;;;;;19.28;44.08;101196.16;5095772;28;20031;-47
2022/05/25 10:22:01;;;;;;;2.13;1.30;;;;;;;19.33;43.88;101199.22;5087562;28;20096;-49
2022/05/25 10:24:41;;;;;;;2.40;1.50;;;;;;;19.43;43.67;101201.94;5083339;28;20709;-50
2022/05/25 10:27:23;;;;;;;4.47;1.38;;;;;;;19.54;43.23;101190.31;5090069;28;20020;-50
2022/05/25 10:38:30;;;;;;;1.90;1.40;;;;;;;19.79;42.75;101179.13;5084681;28;20047;-47
2022/05/25 10:41:37;;;;;;;2.50;1.70;;;;;;;19.86;43.01;101181.25;5093908;28;20058;-49
2022/05/25 10:44:02;;;;;;;3.08;1.10;;;;;;;19.95;42.24;101185.78;5090995;28;20148;-48
2022/05/25 10:46:30;;;;;;;;;;;;;;;19.97;42.30;101182.94;5090107;28;20023;-50
2022/05/25 10:49:09;;;;;;;3.42;1.40;;;;;;;20.00;42.04;101170.19;5090385;28;20027;-50
2022/05/25 10:51:46;;;;;;;2.38;1.52;;;;;;;20.04;42.04;101171.56;5087769;28;20697;-47
2022/05/25 10:54:45;;;;;;;5.07;1.27;;;;;;;20.13;41.88;101174.41;5092428;28;20104;-49
2022/05/25 10:57:41;;;;;;;3.15;1.38;;;;;;;20.26;41.91;101164.25;5091845;28;20117;-49
2022/05/25 11:00:21;;;;;;;6.35;2.25;;;;;;;20.36;41.25;101165.09;5095726;28;20150;-49
2022/05/25 11:03:15;;;;;;;3.08;1.60;;;;;;;20.44;41.22;101163.53;5096761;28;20030;-48
2022/05/25 11:05:52;;;;;;;2.70;1.70;;;;;;;20.47;40.34;101171.28;5083227;28;20035;-49
2022/05/25 11:08:37;;;;;;;2.45;1.30;;;;;;;20.48;40.86;101156.94;5095311;28;20107;-48
2022/05/25 11:11:11;;;;;;;3.17;1.25;;;;;;;20.54;40.46;101162.53;5090884;28;20107;-52
2022/05/25 11:13:43;;;;;;;2.22;1.30;;;;;;;20.57;40.72;101166.75;5094025;28;20020;-48
2022/05/25 11:16:23;;;;;;;5.05;1.30;;;;;;;20.64;40.50;101146.47;5080269;28;20028;-50
2022/05/25 11:19:11;;;;;;;3.38;1.30;;;;;;;20.78;39.93;101152.38;5086686;28;20392;-49
2022/05/25 11:21:39;;;;;;;3.47;1.25;;;;;;;20.87;39.91;101148.81;5091018;28;20053;-48
2022/05/25 11:24:07;;;;;;;2.60;1.52;;;;;;;20.99;39.94;101146.81;5089999;28;20027;-50
2022/05/25 11:27:25;;;;;;;3.13;1.13;;;;;;;21.07;39.59;101135.38;5091461;28;20043;-49
2022/05/25 11:30:00;;;;;;;3.05;1.15;;;;;;;21.12;39.21;101143.78;5024683;28;20035;-49
2022/05/25 11:32:52;;;;;;;2.47;1.20;;;;;;;21.09;38.46;101144.09;5092285;28;20036;-48
2022/05/25 11:35:37;;;;;;;1.70;1.00;;;;;;;20.99;38.51;101150.31;5089353;28;20228;-50
2022/05/25 11:38:23;;;;;;;2.67;1.00;;;;;;;20.96;37.79;101136.41;5090696;28;20036;-48
2022/05/25 11:40:55;;;;;;;3.20;1.13;;;;;;;21.01;38.02;101143.00;5093064;28;20031;-45
2022/05/25 11:43:45;;;;;;;2.17;1.20;;;;;;;21.02;37.80;101133.16;5088356;28;20039;-49
2022/05/25 11:46:22;;;;;;;2.65;1.23;;;;;;;20.96;37.40;101131.88;5102344;28;20038;-46
2022/05/25 11:49:23;;;;;;;1.65;1.10;;;;;;;20.97;37.73;101130.91;5086442;28;20048;-47
2022/05/25 11:52:42;;;;;;;1.98;1.13;;;;;;;21.07;38.05;101138.88;5089277;28;20042;-48
2022/05/25 11:55:43;;;;;;;;;;;;;;;21.08;38.09;101137.06;5040202;28;20037;-47
2022/05/25 11:58:26;;;;;;;4.97;1.90;;;;;;;21.07;38.47;101136.19;5047793;28;19943;-49
2022/05/25 12:01:06;;;;;;;1.67;1.20;;;;;;;21.10;38.31;101138.59;5091978;28;20036;-46
2022/05/25 12:04:16;;;;;;;4.18;1.70;;;;;;;21.15;38.23;101130.09;5093968;28;20028;-50
2022/05/25 12:07:09;;;;;;;4.65;2.08;;;;;;;21.21;37.97;101126.84;5076908;28;20033;-47
2022/05/25 12:09:44;;;;;;;6.85;1.40;;;;;;;21.26;37.56;101124.53;5086102;28;20025;-49
2022/05/25 12:12:22;;;;;;;2.72;1.60;;;;;;;21.30;37.59;101125.94;5085704;28;20119;-48